createdAt,value
2022-10-17T00:00:12.940Z,943.61
2022-10-17T00:01:13.904Z,943.64
2022-10-17T00:02:14.415Z,943.64
2022-10-17T00:03:14.619Z,943.65
2022-10-17T00:04:14.935Z,943.65
2022-10-17T00:05:15.957Z,943.66
2022-10-17T00:06:16.887Z,943.71
2022-10-17T00:07:17.787Z,943.69
2022-10-17T00:08:18.718Z,943.72
2022-10-17T00:09:18.908Z,943.72
2022-10-17T00:10:19.796Z,943.73
2022-10-17T00:11:20.396Z,943.71
2022-10-17T00:12:21.405Z,943.73
2022-10-17T00:13:22.062Z,943.76
2022-10-17T00:14:22.186Z,943.76
2022-10-17T00:15:23.106Z,943.77
2022-10-17T00:16:23.339Z,943.79
2022-10-17T00:17:23.971Z,943.81
2022-10-17T00:18:25.035Z,943.83
2022-10-17T00:19:25.966Z,943.82
2022-10-17T00:20:26.573Z,943.83
2022-10-17T00:21:26.798Z,943.85
2022-10-17T00:22:27.236Z,943.86
2022-10-17T00:23:27.557Z,943.87
2022-10-17T00:24:27.742Z,943.87
2022-10-17T00:25:27.961Z,943.86
2022-10-17T00:26:28.151Z,943.9
2022-10-17T00:27:28.736Z,943.88
2022-10-17T00:28:29.247Z,943.91
2022-10-17T00:29:29.519Z,943.93
2022-10-17T00:30:29.864Z,943.93
2022-10-17T00:31:30.087Z,943.94
2022-10-17T00:32:30.537Z,943.96
2022-10-17T00:33:31.027Z,943.95
2022-10-17T00:34:31.669Z,943.97
2022-10-17T00:35:32.303Z,943.95
2022-10-17T00:36:32.941Z,943.98
2022-10-17T00:37:33.550Z,943.93
2022-10-17T00:38:33.793Z,943.99
2022-10-17T00:39:34.286Z,943.99
2022-10-17T00:40:34.776Z,944.02
2022-10-17T00:41:35.815Z,944.01
2022-10-17T00:42:36.551Z,943.97
2022-10-17T00:43:37.185Z,943.97
2022-10-17T00:44:38.104Z,943.99
2022-10-17T00:45:38.722Z,944.02
2022-10-17T00:46:38.936Z,943.97
2022-10-17T00:47:39.416Z,943.99
2022-10-17T00:48:40.043Z,944
2022-10-17T00:49:41.083Z,944.03
2022-10-17T00:50:41.426Z,943.99
2022-10-17T00:51:42.063Z,943.98
2022-10-17T00:52:42.225Z,943.98
2022-10-17T00:53:42.461Z,944
2022-10-17T00:54:42.659Z,944.01
2022-10-17T00:55:43.571Z,944.01
2022-10-17T00:56:44.488Z,943.99
2022-10-17T00:57:45.407Z,943.95
2022-10-17T00:58:46.044Z,943.92
2022-10-17T00:59:47.090Z,943.94
2022-10-17T01:00:48.105Z,943.93
2022-10-17T01:01:48.844Z,943.95
2022-10-17T01:02:49.547Z,943.97
2022-10-17T01:03:50.457Z,943.96
2022-10-17T01:04:50.650Z,943.93
2022-10-17T01:05:51.616Z,943.93
2022-10-17T01:06:51.853Z,943.94
2022-10-17T01:07:52.049Z,943.97
2022-10-17T01:08:52.289Z,943.96
2022-10-17T01:09:52.507Z,943.97
2022-10-17T01:10:52.819Z,943.97
2022-10-17T01:11:53.738Z,943.96
2022-10-17T01:12:54.461Z,943.99
2022-10-17T01:13:54.648Z,943.92
2022-10-17T01:14:55.568Z,943.99
2022-10-17T01:15:56.481Z,943.95
2022-10-17T01:16:57.415Z,943.97
2022-10-17T01:17:57.615Z,943.98
2022-10-17T01:18:58.120Z,943.99
2022-10-17T01:19:58.522Z,943.95
2022-10-17T01:20:58.734Z,943.96
2022-10-17T01:21:59.665Z,943.94
2022-10-17T01:23:00.353Z,943.93
2022-10-17T01:24:00.572Z,943.93
2022-10-17T01:25:01.459Z,943.94
2022-10-17T01:26:02.372Z,943.91
2022-10-17T01:27:03.275Z,943.94
2022-10-17T01:28:04.193Z,943.91
2022-10-17T01:29:04.447Z,943.87
2022-10-17T01:30:04.645Z,943.88
2022-10-17T01:31:05.257Z,943.86
2022-10-17T01:32:05.917Z,943.85
2022-10-17T01:33:06.898Z,943.88
2022-10-17T01:34:07.498Z,943.81
2022-10-17T01:35:07.985Z,943.84
2022-10-17T01:36:08.624Z,943.81
2022-10-17T01:37:08.828Z,943.81
2022-10-17T01:38:09.170Z,943.79
2022-10-17T01:39:09.418Z,943.8
2022-10-17T01:40:09.992Z,943.76
2022-10-17T01:41:10.583Z,943.77
2022-10-17T01:42:10.919Z,943.75
2022-10-17T01:43:11.781Z,943.74
2022-10-17T01:44:11.993Z,943.81
2022-10-17T01:45:12.643Z,943.78
2022-10-17T01:46:13.283Z,943.78
2022-10-17T01:47:13.515Z,943.81
2022-10-17T01:48:14.090Z,943.81
2022-10-17T01:49:14.725Z,943.78
2022-10-17T01:50:15.643Z,943.8
2022-10-17T01:51:16.283Z,943.77
2022-10-17T01:52:17.218Z,943.78
2022-10-17T01:53:17.948Z,943.76
2022-10-17T01:54:18.895Z,943.82
2022-10-17T01:55:19.239Z,943.78
2022-10-17T01:56:20.153Z,943.8
2022-10-17T01:57:20.804Z,943.8
2022-10-17T01:58:21.327Z,943.8
2022-10-17T01:59:21.535Z,943.74
2022-10-17T02:00:22.452Z,943.78
2022-10-17T02:01:22.699Z,943.75
2022-10-17T02:02:22.897Z,943.76
2022-10-17T02:03:23.998Z,943.77
2022-10-17T02:04:24.196Z,943.75
2022-10-17T02:05:25.107Z,943.74
2022-10-17T02:06:25.997Z,943.77
2022-10-17T02:07:26.803Z,943.74
2022-10-17T02:08:26.943Z,943.76
2022-10-17T02:09:27.459Z,943.73
2022-10-17T02:10:27.784Z,943.77
2022-10-17T02:11:28.695Z,943.79
2022-10-17T02:12:29.308Z,943.75
2022-10-17T02:13:30.168Z,943.76
2022-10-17T02:14:30.484Z,943.77
2022-10-17T02:15:31.120Z,943.75
2022-10-17T02:16:31.311Z,943.76
2022-10-17T02:17:31.967Z,943.77
2022-10-17T02:18:32.155Z,943.73
2022-10-17T02:19:33.067Z,943.75
2022-10-17T02:20:33.981Z,943.73
2022-10-17T02:21:34.174Z,943.75
2022-10-17T02:22:34.676Z,943.71
2022-10-17T02:23:35.092Z,943.73
2022-10-17T02:24:35.311Z,943.74
2022-10-17T02:25:36.212Z,943.73
2022-10-17T02:26:37.103Z,943.71
2022-10-17T02:27:37.294Z,943.73
2022-10-17T02:28:37.495Z,943.72
2022-10-17T02:29:38.061Z,943.7
2022-10-17T02:30:38.378Z,943.67
2022-10-17T02:31:39.295Z,943.7
2022-10-17T02:32:40.236Z,943.71
2022-10-17T02:33:40.616Z,943.69
2022-10-17T02:34:41.283Z,943.7
2022-10-17T02:35:42.194Z,943.67
2022-10-17T02:36:42.827Z,943.69
2022-10-17T02:37:43.756Z,943.68
2022-10-17T02:38:44.666Z,943.64
2022-10-17T02:39:44.886Z,943.68
2022-10-17T02:40:45.519Z,943.69
2022-10-17T02:41:46.012Z,943.67
2022-10-17T02:42:46.225Z,943.67
2022-10-17T02:43:47.218Z,943.7
2022-10-17T02:44:48.113Z,943.75
2022-10-17T02:45:49.012Z,943.76
2022-10-17T02:46:49.227Z,943.74
2022-10-17T02:47:49.747Z,943.75
2022-10-17T02:48:50.226Z,943.74
2022-10-17T02:49:50.739Z,943.78
2022-10-17T02:50:50.931Z,943.77
2022-10-17T02:51:51.563Z,943.74
2022-10-17T02:52:51.915Z,943.78
2022-10-17T02:53:52.213Z,943.77
2022-10-17T02:54:52.419Z,943.77
2022-10-17T02:55:53.337Z,943.75
2022-10-17T02:56:54.230Z,943.8
2022-10-17T02:57:55.124Z,943.79
2022-10-17T02:58:55.314Z,943.79
2022-10-17T02:59:55.933Z,943.82
2022-10-17T03:00:56.915Z,943.84
2022-10-17T03:01:57.245Z,943.8
2022-10-17T03:02:58.184Z,943.82
2022-10-17T03:03:58.985Z,943.82
2022-10-17T03:04:59.213Z,943.86
2022-10-17T03:05:59.847Z,943.8
2022-10-17T03:07:00.764Z,943.83
2022-10-17T03:08:01.425Z,943.8
2022-10-17T03:09:02.331Z,943.79
2022-10-17T03:10:02.853Z,943.84
2022-10-17T03:11:03.470Z,943.85
2022-10-17T03:12:04.358Z,943.82
2022-10-17T03:13:04.976Z,943.86
2022-10-17T03:14:05.987Z,943.8
2022-10-17T03:15:06.180Z,943.83
2022-10-17T03:16:07.082Z,943.84
2022-10-17T03:17:07.722Z,943.82
2022-10-17T03:18:08.369Z,943.78
2022-10-17T03:19:08.977Z,943.78
2022-10-17T03:20:09.183Z,943.82
2022-10-17T03:21:10.097Z,943.79
2022-10-17T03:22:11.020Z,943.84
2022-10-17T03:23:11.728Z,943.82
2022-10-17T03:24:12.145Z,943.86
2022-10-17T03:25:12.367Z,943.87
2022-10-17T03:26:13.264Z,943.86
2022-10-17T03:27:13.611Z,943.89
2022-10-17T03:28:13.876Z,943.89
2022-10-17T03:29:14.594Z,943.86
2022-10-17T03:30:14.910Z,943.85
2022-10-17T03:31:15.519Z,943.89
2022-10-17T03:32:16.432Z,943.87
2022-10-17T03:33:17.374Z,943.88
2022-10-17T03:34:17.950Z,943.9
2022-10-17T03:35:18.178Z,943.92
2022-10-17T03:36:18.791Z,943.91
2022-10-17T03:37:19.705Z,943.92
2022-10-17T03:38:20.612Z,943.92
2022-10-17T03:39:21.527Z,943.93
2022-10-17T03:40:22.464Z,943.95
2022-10-17T03:41:22.950Z,943.93
2022-10-17T03:42:23.289Z,943.94
2022-10-17T03:43:23.775Z,943.94
2022-10-17T03:44:24.487Z,943.93
2022-10-17T03:45:25.102Z,943.92
2022-10-17T03:46:26.027Z,943.95
2022-10-17T03:47:26.390Z,943.93
2022-10-17T03:48:26.491Z,943.96
2022-10-17T03:49:26.678Z,943.98
2022-10-17T03:50:27.581Z,944
2022-10-17T03:51:27.835Z,944.01
2022-10-17T03:52:28.749Z,944.03
2022-10-17T03:53:29.391Z,943.99
2022-10-17T03:54:29.884Z,944.01
2022-10-17T03:55:30.512Z,944.05
2022-10-17T03:56:30.704Z,944
2022-10-17T03:57:31.293Z,944.01
2022-10-17T03:58:31.876Z,944.02
2022-10-17T03:59:32.772Z,943.99
2022-10-17T04:00:33.390Z,943.96
2022-10-17T04:01:33.817Z,943.94
2022-10-17T04:02:34.315Z,943.93
2022-10-17T04:03:34.528Z,943.94
2022-10-17T04:04:35.224Z,943.93
2022-10-17T04:05:35.829Z,943.93
2022-10-17T04:06:36.466Z,943.95
2022-10-17T04:07:37.388Z,943.91
2022-10-17T04:08:38.017Z,943.89
2022-10-17T04:09:38.643Z,943.93
2022-10-17T04:10:38.914Z,943.9
2022-10-17T04:11:39.852Z,943.88
2022-10-17T04:12:40.488Z,943.91
2022-10-17T04:13:40.701Z,943.88
2022-10-17T04:14:41.007Z,943.9
2022-10-17T04:15:41.907Z,943.88
2022-10-17T04:16:42.101Z,943.88
2022-10-17T04:17:43.007Z,943.91
2022-10-17T04:18:43.798Z,943.93
2022-10-17T04:19:44.445Z,943.93
2022-10-17T04:20:44.949Z,943.93
2022-10-17T04:21:45.586Z,943.94
2022-10-17T04:22:46.505Z,943.95
2022-10-17T04:23:46.676Z,943.97
2022-10-17T04:24:47.114Z,944.01
2022-10-17T04:25:47.347Z,943.99
2022-10-17T04:26:48.242Z,943.97
2022-10-17T04:27:48.432Z,943.97
2022-10-17T04:28:49.458Z,943.93
2022-10-17T04:29:50.358Z,943.96
2022-10-17T04:30:53.977Z,943.95
2022-10-17T04:31:52.008Z,943.95
2022-10-17T04:32:52.952Z,943.97
2022-10-17T04:33:53.896Z,943.93
2022-10-17T04:34:54.187Z,943.95
2022-10-17T04:35:55.091Z,943.94
2022-10-17T04:36:55.993Z,943.95
2022-10-17T04:37:56.329Z,943.99
2022-10-17T04:38:56.978Z,943.98
2022-10-17T04:39:58.068Z,944.01
2022-10-17T04:40:58.289Z,944.04
2022-10-17T04:41:59.205Z,944.02
2022-10-17T04:42:59.818Z,944.02
2022-10-17T04:44:00.437Z,944.04
2022-10-17T04:45:00.854Z,944.04
2022-10-17T04:46:01.067Z,944.01
2022-10-17T04:47:01.574Z,944.03
2022-10-17T04:48:01.771Z,944.05
2022-10-17T04:49:01.984Z,944.04
2022-10-17T04:50:02.519Z,944.06
2022-10-17T04:51:02.752Z,944.07
2022-10-17T04:52:03.447Z,944.07
2022-10-17T04:53:04.361Z,944.11
2022-10-17T04:54:05.314Z,944.06
2022-10-17T04:55:05.645Z,944.08
2022-10-17T04:56:06.567Z,944.05
2022-10-17T04:57:07.185Z,944.08
2022-10-17T04:58:07.497Z,944.1
2022-10-17T04:59:08.107Z,944.11
2022-10-17T05:01:09.324Z,944.12
2022-10-17T05:02:10.075Z,944.17
2022-10-17T05:03:11.024Z,944.21
2022-10-17T05:04:11.385Z,944.19
2022-10-17T05:05:11.859Z,944.18
2022-10-17T05:06:12.060Z,944.17
2022-10-17T05:07:12.952Z,944.18
2022-10-17T05:08:13.165Z,944.19
2022-10-17T05:09:13.400Z,944.23
2022-10-17T05:10:13.905Z,944.22
2022-10-17T05:11:14.166Z,944.22
2022-10-17T05:12:14.398Z,944.26
2022-10-17T05:13:15.360Z,944.3
2022-10-17T05:14:16.397Z,944.32
2022-10-17T05:15:16.829Z,944.29
2022-10-17T05:16:17.725Z,944.3
2022-10-17T05:17:18.349Z,944.34
2022-10-17T05:18:18.844Z,944.3
2022-10-17T05:19:19.507Z,944.34
2022-10-17T05:20:19.677Z,944.3
2022-10-17T05:21:20.642Z,944.34
2022-10-17T05:22:21.021Z,944.33
2022-10-17T05:23:21.598Z,944.34
2022-10-17T05:24:21.812Z,944.36
2022-10-17T05:25:22.667Z,944.36
2022-10-17T05:26:23.195Z,944.38
2022-10-17T05:27:23.812Z,944.4
2022-10-17T05:28:24.077Z,944.39
2022-10-17T05:29:24.966Z,944.39
2022-10-17T05:30:25.167Z,944.4
2022-10-17T05:31:25.853Z,944.4
2022-10-17T05:32:26.577Z,944.39
2022-10-17T05:33:27.229Z,944.42
2022-10-17T05:34:27.872Z,944.44
2022-10-17T05:35:28.604Z,944.46
2022-10-17T05:36:28.808Z,944.51
2022-10-17T05:37:29.403Z,944.49
2022-10-17T05:38:29.616Z,944.51
2022-10-17T05:39:30.533Z,944.52
2022-10-17T05:40:31.116Z,944.58
2022-10-17T05:41:31.347Z,944.58
2022-10-17T05:42:31.968Z,944.6
2022-10-17T05:43:31.879Z,944.61
2022-10-17T05:44:32.790Z,944.6
2022-10-17T05:45:33.624Z,944.65
2022-10-17T05:46:33.841Z,944.65
2022-10-17T05:47:34.157Z,944.68
2022-10-17T05:48:35.074Z,944.69
2022-10-17T05:49:52.191Z,944.62
2022-10-17T05:50:36.372Z,944.66
2022-10-17T05:51:36.720Z,944.68
2022-10-17T05:52:37.094Z,944.69
2022-10-17T05:53:37.582Z,944.71
2022-10-17T05:54:37.809Z,944.72
2022-10-17T05:55:38.523Z,944.76
2022-10-17T05:56:39.495Z,944.79
2022-10-17T05:57:40.535Z,944.81
2022-10-17T05:59:00.051Z,944.88
2022-10-17T05:59:42.127Z,944.86
2022-10-17T06:00:43.080Z,944.91
2022-10-17T06:01:44.061Z,944.93
2022-10-17T06:02:44.459Z,944.98
2022-10-17T06:03:45.055Z,944.97
2022-10-17T06:04:45.370Z,944.99
2022-10-17T06:05:46.353Z,944.99
2022-10-17T06:06:46.981Z,945.03
2022-10-17T06:07:47.873Z,945.06
2022-10-17T06:08:48.298Z,945.07
2022-10-17T06:09:49.287Z,945.09
2022-10-17T06:10:49.504Z,945.09
2022-10-17T06:11:49.650Z,945.11
2022-10-17T06:12:50.261Z,945.15
2022-10-17T06:13:50.950Z,945.12
2022-10-17T06:14:51.863Z,945.16
2022-10-17T06:15:52.867Z,945.17
2022-10-17T06:16:53.209Z,945.21
2022-10-17T06:17:54.144Z,945.16
2022-10-17T06:18:54.768Z,945.22
2022-10-17T06:19:55.699Z,945.24
2022-10-17T06:20:56.198Z,945.23
2022-10-17T06:21:56.711Z,945.27
2022-10-17T06:22:57.214Z,945.28
2022-10-17T06:23:58.139Z,945.29
2022-10-17T06:24:58.361Z,945.31
2022-10-17T06:25:59.363Z,945.31
2022-10-17T06:26:59.878Z,945.38
2022-10-17T06:28:00.839Z,945.36
2022-10-17T06:29:01.094Z,945.37
2022-10-17T06:30:01.332Z,945.42
2022-10-17T06:31:01.987Z,945.43
2022-10-17T06:32:02.208Z,945.45
2022-10-17T06:33:03.259Z,945.46
2022-10-17T06:34:03.599Z,945.46
2022-10-17T06:35:04.537Z,945.49
2022-10-17T06:36:05.378Z,945.48
2022-10-17T06:37:06.003Z,945.51
2022-10-17T06:38:06.600Z,945.5
2022-10-17T06:39:07.516Z,945.49
2022-10-17T06:40:07.724Z,945.48
2022-10-17T06:41:08.705Z,945.5
2022-10-17T06:42:08.950Z,945.48
2022-10-17T06:43:09.898Z,945.52
2022-10-17T06:44:10.710Z,945.55
2022-10-17T06:45:11.726Z,945.51
2022-10-17T06:46:12.811Z,945.53
2022-10-17T06:47:14.367Z,945.51
2022-10-17T06:48:14.282Z,945.53
2022-10-17T06:49:15.193Z,945.54
2022-10-17T06:50:15.714Z,945.54
2022-10-17T06:51:15.926Z,945.54
2022-10-17T06:52:16.140Z,945.58
2022-10-17T06:53:17.066Z,945.6
2022-10-17T06:54:17.268Z,945.66
2022-10-17T06:55:19.603Z,945.67
2022-10-17T06:56:18.332Z,945.66
2022-10-17T06:57:18.649Z,945.7
2022-10-17T06:58:19.234Z,945.72
2022-10-17T06:59:19.872Z,945.74
2022-10-17T07:00:20.270Z,945.68
2022-10-17T07:01:20.442Z,945.7
2022-10-17T07:02:21.080Z,945.66
2022-10-17T07:03:21.393Z,945.69
2022-10-17T07:04:21.600Z,945.72
2022-10-17T07:05:21.975Z,945.71
2022-10-17T07:06:22.284Z,945.72
2022-10-17T07:07:23.198Z,945.74
2022-10-17T07:08:23.927Z,945.73
2022-10-17T07:09:24.825Z,945.72
2022-10-17T07:10:25.044Z,945.78
2022-10-17T07:11:25.537Z,945.76
2022-10-17T07:12:26.101Z,945.78
2022-10-17T07:13:26.302Z,945.8
2022-10-17T07:14:26.899Z,945.79
2022-10-17T07:15:27.131Z,945.78
2022-10-17T07:16:28.215Z,945.8
2022-10-17T07:17:29.376Z,945.82
2022-10-17T07:18:29.421Z,945.82
2022-10-17T07:19:29.626Z,945.82
2022-10-17T07:20:30.578Z,945.83
2022-10-17T07:21:34.004Z,945.87
2022-10-17T07:22:31.648Z,945.85
2022-10-17T07:23:31.841Z,945.94
2022-10-17T07:24:32.472Z,945.91
2022-10-17T07:25:34.155Z,945.91
2022-10-17T07:26:33.453Z,945.9
2022-10-17T07:27:33.755Z,945.91
2022-10-17T07:28:34.011Z,945.93
2022-10-17T07:29:34.366Z,945.92
2022-10-17T07:30:34.590Z,945.95
2022-10-17T07:31:35.499Z,945.97
2022-10-17T07:32:36.503Z,945.96
2022-10-17T07:33:36.760Z,945.97
2022-10-17T07:34:37.140Z,945.99
2022-10-17T07:35:37.370Z,946.03
2022-10-17T07:36:37.716Z,945.95
2022-10-17T07:37:38.283Z,946
2022-10-17T07:38:39.226Z,946.02
2022-10-17T07:39:39.655Z,946.04
2022-10-17T07:40:40.285Z,946.06
2022-10-17T07:42:41.542Z,946.12
2022-10-17T07:43:41.573Z,946.12
2022-10-17T07:44:41.891Z,946.13
2022-10-17T07:45:42.350Z,946.17
2022-10-17T07:46:42.936Z,946.17
2022-10-17T07:47:43.546Z,946.15
2022-10-17T07:48:44.043Z,946.16
2022-10-17T07:49:45.231Z,946.17
2022-10-17T07:50:45.694Z,946.18
2022-10-17T07:52:46.834Z,946.16
2022-10-17T07:53:48.085Z,946.17
2022-10-17T07:54:48.680Z,946.18
2022-10-17T07:55:49.112Z,946.16
2022-10-17T07:56:49.467Z,946.16
2022-10-17T07:57:49.957Z,946.15
2022-10-17T07:58:50.167Z,946.16
2022-10-17T07:59:50.789Z,946.22
2022-10-17T08:00:51.052Z,946.14
2022-10-17T08:01:52.021Z,946.13
2022-10-17T08:02:52.261Z,946.2
2022-10-17T08:03:52.326Z,946.18
2022-10-17T08:04:52.476Z,946.19
2022-10-17T08:05:53.480Z,946.24
2022-10-17T08:07:00.614Z,946.23
2022-10-17T08:07:54.967Z,946.25
2022-10-17T08:08:55.501Z,946.22
2022-10-17T08:09:56.562Z,946.26
2022-10-17T08:10:57.328Z,946.21
2022-10-17T08:11:57.726Z,946.2
2022-10-17T08:12:58.271Z,946.17
2022-10-17T08:13:59.208Z,946.19
2022-10-17T08:14:59.562Z,946.21
2022-10-17T08:16:00.547Z,946.23
2022-10-17T08:17:00.882Z,946.25
2022-10-17T08:18:01.088Z,946.21
2022-10-17T08:19:01.788Z,946.19
2022-10-17T08:20:02.728Z,946.19
2022-10-17T08:21:03.673Z,946.25
2022-10-17T08:22:03.866Z,946.22
2022-10-17T08:23:04.223Z,946.23
2022-10-17T08:24:04.445Z,946.25
2022-10-17T08:25:04.668Z,946.24
2022-10-17T08:26:05.135Z,946.24
2022-10-17T08:27:05.577Z,946.26
2022-10-17T08:29:06.747Z,946.31
2022-10-17T08:30:06.923Z,946.31
2022-10-17T08:31:07.898Z,946.32
2022-10-17T08:32:09.829Z,946.27
2022-10-17T08:33:09.137Z,946.35
2022-10-17T08:34:09.391Z,946.37
2022-10-17T08:35:09.683Z,946.33
2022-10-17T08:36:10.667Z,946.29
2022-10-17T08:38:13.420Z,946.31
2022-10-17T08:39:13.624Z,946.38
2022-10-17T08:40:14.343Z,946.34
2022-10-17T08:41:15.461Z,946.29
2022-10-17T08:42:16.210Z,946.27
2022-10-17T08:43:16.749Z,946.26
2022-10-17T08:44:17.384Z,946.26
2022-10-17T08:45:17.608Z,946.29
2022-10-17T08:46:18.665Z,946.28
2022-10-17T08:47:19.161Z,946.27
2022-10-17T08:48:20.026Z,946.27
2022-10-17T08:49:21.024Z,946.27
2022-10-17T08:50:21.316Z,946.22
2022-10-17T08:51:21.552Z,946.16
2022-10-17T08:52:22.105Z,946.2
2022-10-17T08:53:22.467Z,946.25
2022-10-17T08:54:22.756Z,946.22
2022-10-17T08:55:23.819Z,946.26
2022-10-17T08:56:36.979Z,946.23
2022-10-17T08:57:31.950Z,946.28
2022-10-17T08:58:32.282Z,946.26
2022-10-17T08:59:32.950Z,946.25
2022-10-17T09:00:33.074Z,946.31
2022-10-17T09:01:33.209Z,946.28
2022-10-17T09:02:34.252Z,946.29
2022-10-17T09:03:35.304Z,946.33
2022-10-17T09:04:35.839Z,946.34
2022-10-17T09:05:36.436Z,946.34
2022-10-17T09:06:36.989Z,946.35
2022-10-17T09:07:37.745Z,946.36
2022-10-17T09:08:38.797Z,946.31
2022-10-17T09:09:38.839Z,946.36
2022-10-17T09:10:39.800Z,946.35
2022-10-17T09:11:40.337Z,946.37
2022-10-17T09:12:40.567Z,946.35
2022-10-17T09:13:41.125Z,946.36
2022-10-17T09:14:41.805Z,946.36
2022-10-17T09:15:42.449Z,946.39
2022-10-17T09:16:42.733Z,946.33
2022-10-17T09:17:43.138Z,946.34
2022-10-17T09:18:44.122Z,946.32
2022-10-17T09:19:44.899Z,946.31
2022-10-17T09:20:45.629Z,946.28
2022-10-17T09:21:46.483Z,946.35
2022-10-17T09:22:47.372Z,946.32
2022-10-17T09:23:47.726Z,946.31
2022-10-17T09:24:48.357Z,946.29
2022-10-17T09:25:48.644Z,946.27
2022-10-17T09:26:49.625Z,946.29
2022-10-17T09:27:49.759Z,946.33
2022-10-17T09:28:50.933Z,946.3
2022-10-17T09:29:51.465Z,946.3
2022-10-17T09:30:52.529Z,946.31
2022-10-17T09:31:53.105Z,946.28
2022-10-17T09:32:53.484Z,946.3
2022-10-17T09:33:55.034Z,946.35
2022-10-17T09:34:54.729Z,946.34
2022-10-17T09:35:55.495Z,946.35
2022-10-17T09:36:56.615Z,946.37
2022-10-17T09:37:57.259Z,946.33
2022-10-17T09:38:58.133Z,946.33
2022-10-17T09:39:59.205Z,946.33
2022-10-17T09:40:59.441Z,946.34
2022-10-17T09:42:00.500Z,946.34
2022-10-17T09:43:00.994Z,946.3
2022-10-17T09:44:01.880Z,946.29
2022-10-17T09:45:02.734Z,946.31
2022-10-17T09:46:03.256Z,946.29
2022-10-17T09:47:03.522Z,946.36
2022-10-17T09:48:03.736Z,946.33
2022-10-17T09:49:04.038Z,946.36
2022-10-17T09:50:04.723Z,946.35
2022-10-17T09:51:15.046Z,946.38
2022-10-17T09:52:06.189Z,946.39
2022-10-17T09:53:07.136Z,946.39
2022-10-17T09:54:08.088Z,946.35
2022-10-17T09:55:09.157Z,946.36
2022-10-17T09:56:10.107Z,946.35
2022-10-17T09:57:10.610Z,946.38
2022-10-17T09:58:11.241Z,946.39
2022-10-17T09:59:13.838Z,946.41
2022-10-17T10:00:12.520Z,946.48
2022-10-17T10:01:13.054Z,946.41
2022-10-17T10:02:13.606Z,946.48
2022-10-17T10:03:13.702Z,946.54
2022-10-17T10:04:14.607Z,946.51
2022-10-17T10:05:15.695Z,946.51
2022-10-17T10:06:16.466Z,946.56
2022-10-17T10:07:16.743Z,946.56
2022-10-17T10:08:16.884Z,946.54
2022-10-17T10:09:17.705Z,946.57
2022-10-17T10:10:18.512Z,946.59
2022-10-17T10:11:18.724Z,946.6
2022-10-17T10:12:19.232Z,946.63
2022-10-17T10:13:19.998Z,946.63
2022-10-17T10:14:21.012Z,946.67
2022-10-17T10:15:21.226Z,946.68
2022-10-17T10:16:22.171Z,946.67
2022-10-17T10:17:22.726Z,946.7
2022-10-17T10:18:23.767Z,946.7
2022-10-17T10:19:24.072Z,946.69
2022-10-17T10:20:25.039Z,946.67
2022-10-17T10:21:25.191Z,946.72
2022-10-17T10:22:25.820Z,946.74
2022-10-17T10:23:26.113Z,946.68
2022-10-17T10:24:30.551Z,946.66
2022-10-17T10:25:27.416Z,946.7
2022-10-17T10:26:27.649Z,946.71
2022-10-17T10:27:28.339Z,946.75
2022-10-17T10:28:29.091Z,946.73
2022-10-17T10:29:29.695Z,946.73
2022-10-17T10:30:30.371Z,946.74
2022-10-17T10:31:30.857Z,946.68
2022-10-17T10:32:31.913Z,946.67
2022-10-17T10:33:31.991Z,946.71
2022-10-17T10:34:32.362Z,946.7
2022-10-17T10:35:33.330Z,946.74
2022-10-17T10:36:34.189Z,946.68
2022-10-17T10:37:34.535Z,946.68
2022-10-17T10:38:35.274Z,946.66
2022-10-17T10:39:35.669Z,946.67
2022-10-17T10:40:36.159Z,946.64
2022-10-17T10:41:36.672Z,946.65
2022-10-17T10:42:36.893Z,946.69
2022-10-17T10:43:37.463Z,946.67
2022-10-17T10:44:38.039Z,946.68
2022-10-17T10:45:53.579Z,946.66
2022-10-17T10:46:38.577Z,946.7
2022-10-17T10:47:38.771Z,946.7
2022-10-17T10:48:39.515Z,946.72
2022-10-17T10:49:39.888Z,946.7
2022-10-17T10:50:45.130Z,946.7
2022-10-17T10:51:41.501Z,946.76
2022-10-17T10:52:42.094Z,946.74
2022-10-17T10:53:42.286Z,946.72
2022-10-17T10:54:42.921Z,946.7
2022-10-17T10:55:43.148Z,946.72
2022-10-17T10:56:44.193Z,946.74
2022-10-17T10:57:44.967Z,946.74
2022-10-17T10:58:45.299Z,946.79
2022-10-17T10:59:45.415Z,946.78
2022-10-17T11:00:45.787Z,946.78
2022-10-17T11:01:46.311Z,946.8
2022-10-17T11:02:46.823Z,946.77
2022-10-17T11:03:47.158Z,946.78
2022-10-17T11:04:47.498Z,946.76
2022-10-17T11:05:48.007Z,946.75
2022-10-17T11:06:48.275Z,946.76
2022-10-17T11:07:48.504Z,946.72
2022-10-17T11:08:49.502Z,946.72
2022-10-17T11:09:50.074Z,946.72
2022-10-17T11:10:50.262Z,946.72
2022-10-17T11:11:50.611Z,946.74
2022-10-17T11:12:50.894Z,946.74
2022-10-17T11:13:53.273Z,946.72
2022-10-17T11:14:51.323Z,946.71
2022-10-17T11:15:51.675Z,946.68
2022-10-17T11:16:51.989Z,946.7
2022-10-17T11:17:52.926Z,946.7
2022-10-17T11:18:53.522Z,946.66
2022-10-17T11:19:54.457Z,946.68
2022-10-17T11:20:55.077Z,946.64
2022-10-17T11:21:55.276Z,946.65
2022-10-17T11:22:55.980Z,946.66
2022-10-17T11:23:56.648Z,946.63
2022-10-17T11:24:57.661Z,946.61
2022-10-17T11:25:58.595Z,946.59
2022-10-17T11:26:58.801Z,946.63
2022-10-17T11:28:03.767Z,946.65
2022-10-17T11:28:59.646Z,946.63
2022-10-17T11:30:00.723Z,946.66
2022-10-17T11:31:02.275Z,946.64
2022-10-17T11:32:01.216Z,946.68
2022-10-17T11:33:01.898Z,946.7
2022-10-17T11:34:02.237Z,946.69
2022-10-17T11:35:02.589Z,946.71
2022-10-17T11:36:02.811Z,946.7
2022-10-17T11:37:03.542Z,946.71
2022-10-17T11:38:04.605Z,946.7
2022-10-17T11:39:05.329Z,946.72
2022-10-17T11:40:05.556Z,946.74
2022-10-17T11:41:06.305Z,946.77
2022-10-17T11:42:06.520Z,946.8
2022-10-17T11:43:07.457Z,946.74
2022-10-17T11:44:07.712Z,946.74
2022-10-17T11:45:08.241Z,946.77
2022-10-17T11:46:08.453Z,946.76
2022-10-17T11:47:09.410Z,946.74
2022-10-17T11:48:09.623Z,946.74
2022-10-17T11:49:09.961Z,946.77
2022-10-17T11:52:06.918Z,946.78
2022-10-17T11:53:07.390Z,946.8
2022-10-17T11:54:08.102Z,946.74
2022-10-17T11:55:08.405Z,946.74
2022-10-17T11:56:08.923Z,946.73
2022-10-17T11:57:12.742Z,946.67
2022-10-17T11:58:09.458Z,946.68
2022-10-17T11:59:10.153Z,946.66
2022-10-17T12:00:11.181Z,946.65
2022-10-17T12:01:12.115Z,946.64
2022-10-17T12:02:12.625Z,946.66
2022-10-17T12:03:13.496Z,946.66
2022-10-17T12:04:14.460Z,946.66
2022-10-17T12:05:14.749Z,946.64
2022-10-17T12:06:14.977Z,946.68
2022-10-17T12:07:15.418Z,946.66
2022-10-17T12:08:15.768Z,946.65
2022-10-17T12:09:16.294Z,946.66
2022-10-17T12:10:17.009Z,946.64
2022-10-17T12:11:17.535Z,946.63
2022-10-17T12:12:17.756Z,946.61
2022-10-17T12:13:18.548Z,946.59
2022-10-17T12:14:19.514Z,946.59
2022-10-17T12:15:20.247Z,946.56
2022-10-17T12:16:20.495Z,946.56
2022-10-17T12:17:20.788Z,946.59
2022-10-17T12:18:21.459Z,946.58
2022-10-17T12:19:22.403Z,946.53
2022-10-17T12:20:23.409Z,946.55
2022-10-17T12:21:27.318Z,946.58
2022-10-17T12:22:25.883Z,946.54
2022-10-17T12:23:26.062Z,946.55
2022-10-17T12:24:25.631Z,946.53
2022-10-17T12:25:26.613Z,946.51
2022-10-17T12:26:26.895Z,946.5
2022-10-17T12:27:28.098Z,946.51
2022-10-17T12:28:28.695Z,946.49
2022-10-17T12:29:28.953Z,946.48
2022-10-17T12:30:29.980Z,946.43
2022-10-17T12:31:34.002Z,946.46
2022-10-17T12:32:41.548Z,946.46
2022-10-17T12:33:32.711Z,946.49
2022-10-17T12:34:33.783Z,946.46
2022-10-17T12:35:34.843Z,946.44
2022-10-17T12:36:35.887Z,946.43
2022-10-17T12:37:36.674Z,946.43
2022-10-17T12:38:37.302Z,946.45
2022-10-17T12:39:37.434Z,946.47
2022-10-17T12:40:38.028Z,946.43
2022-10-17T12:41:38.837Z,946.44
2022-10-17T12:42:39.227Z,946.46
2022-10-17T12:43:42.711Z,946.42
2022-10-17T12:44:40.051Z,946.46